Twightwee, Ohio
Current Conditions -  °F | °C
As of 8:53 AM on Thursday 29 Jan 2015 (Local Time) from KLUK Reporting Station
Overcast Overcast  
Wind Chill: 31°   Ceiling: 8000
Heat Index: 37°   Visibility: 10mi
Dew Point: 32°   Wind: 8mph
Humidity: 82%   Direction: 200°SSW
Pressure: 29.9"   Gusts: NA
Location:  39.23°N, 84.2394°W
Report Text: KLUK 291353Z 20007KT 10SM OVC080 03/00 A2990 RMK AO2 RAE00B24E33 SLP130 P0000 T00280000
Loading
Personal Weather Stations






























Interactive Weather Map New forecast layout! Learn more

10-Day Weather Forecast

Advertisements
Track Severe Weather on mobile